createdAt,value
2022-11-24T00:00:04.425Z,78.97
2022-11-24T00:02:53.957Z,78.92
2022-11-24T00:05:23.200Z,78.99
2022-11-24T00:07:51.418Z,78.97
2022-11-24T00:10:19.866Z,79.25
2022-11-24T00:12:48.037Z,79.02
2022-11-24T00:15:16.318Z,78.86
2022-11-24T00:17:44.495Z,79.09
2022-11-24T00:20:12.810Z,79.29
2022-11-24T00:22:41.026Z,79.36
2022-11-24T00:25:09.435Z,79.95
2022-11-24T00:27:37.686Z,80.55
2022-11-24T00:30:06.497Z,80.24
2022-11-24T00:32:34.841Z,80.19
2022-11-24T00:35:03.220Z,80.74
2022-11-24T00:37:33.858Z,80.76
2022-11-24T00:40:02.025Z,80.45
2022-11-24T00:42:30.504Z,80.41
2022-11-24T00:44:58.881Z,80.64
2022-11-24T00:47:29.107Z,80.53
2022-11-24T00:49:57.274Z,80.37
2022-11-24T00:52:25.549Z,80.22
2022-11-24T00:54:53.730Z,80.22
2022-11-24T00:57:21.875Z,80.22
2022-11-24T00:59:50.375Z,80.24
2022-11-24T01:02:18.605Z,79.84
2022-11-24T01:04:46.951Z,79.58
2022-11-24T01:07:15.149Z,79.47
2022-11-24T01:09:45.834Z,79.47
2022-11-24T01:12:14.003Z,79.57
2022-11-24T01:14:42.180Z,79.59
2022-11-24T01:17:10.355Z,79.76
2022-11-24T01:19:38.627Z,79.81
2022-11-24T01:22:06.820Z,79.77
2022-11-24T01:24:35.153Z,79.74
2022-11-24T01:27:03.597Z,79.81
2022-11-24T01:29:31.729Z,79.94
2022-11-24T01:31:59.902Z,80.02
2022-11-24T01:34:28.403Z,80.05
2022-11-24T01:36:56.659Z,80.24
2022-11-24T01:39:24.932Z,80.17
2022-11-24T01:41:53.514Z,80.10
2022-11-24T01:44:29.467Z,80.07
2022-11-24T01:47:36.766Z,80.31
2022-11-24T01:50:06.455Z,80.65
2022-11-24T01:52:40.277Z,80.72
2022-11-24T01:55:14.190Z,80.68
2022-11-24T01:57:47.168Z,80.67
2022-11-24T02:00:16.327Z,80.58
2022-11-24T02:02:46.102Z,80.75
2022-11-24T02:05:28.482Z,80.65
2022-11-24T02:08:00.885Z,80.63
2022-11-24T02:10:30.073Z,80.56
2022-11-24T02:13:00.984Z,80.35
2022-11-24T02:15:29.989Z,80.42
2022-11-24T02:17:59.468Z,80.27
2022-11-24T02:20:27.854Z,80.24
2022-11-24T02:23:15.897Z,80.37
2022-11-24T02:25:59.135Z,80.11
2022-11-24T02:28:33.011Z,80.33
2022-11-24T02:31:02.460Z,80.42
2022-11-24T02:33:31.111Z,80.37
2022-11-24T02:35:59.473Z,80.36
2022-11-24T02:38:32.887Z,80.21
2022-11-24T02:41:08.030Z,79.89
2022-11-24T02:43:42.851Z,79.84
2022-11-24T02:46:11.188Z,79.89
2022-11-24T02:48:39.527Z,79.86
2022-11-24T02:51:07.786Z,79.43
2022-11-24T02:53:36.055Z,79.28
2022-11-24T02:56:04.946Z,79.15
2022-11-24T02:58:33.081Z,79.04
2022-11-24T03:01:01.298Z,79.18
2022-11-24T03:03:29.564Z,79.44
2022-11-24T03:05:57.840Z,79.61
2022-11-24T03:08:26.139Z,79.39
2022-11-24T03:10:54.801Z,79.20
2022-11-24T03:13:22.976Z,79.24
2022-11-24T03:15:51.169Z,79.10
2022-11-24T03:18:19.326Z,79.43
2022-11-24T03:20:47.498Z,79.73
2022-11-24T03:23:15.792Z,79.88
2022-11-24T03:25:43.984Z,80.03
2022-11-24T03:28:12.265Z,79.62
2022-11-24T03:30:40.734Z,79.71
2022-11-24T03:33:08.975Z,80.08
2022-11-24T03:35:37.114Z,80.07
2022-11-24T03:38:05.326Z,80.18
2022-11-24T03:40:33.592Z,80.61
2022-11-24T03:43:01.766Z,80.82
2022-11-24T03:45:45.332Z,80.85
2022-11-24T03:48:15.217Z,80.97
2022-11-24T03:50:44.300Z,81.00
2022-11-24T03:53:12.477Z,80.86
2022-11-24T03:55:43.215Z,80.87
2022-11-24T03:58:11.492Z,80.77
2022-11-24T04:00:39.912Z,80.51
2022-11-24T04:03:08.305Z,80.03
2022-11-24T04:05:36.809Z,79.93
2022-11-24T04:08:06.220Z,80.00
2022-11-24T04:10:37.416Z,79.97
2022-11-24T04:13:12.815Z,80.21
2022-11-24T04:15:42.264Z,80.24
2022-11-24T04:18:12.669Z,79.91
2022-11-24T04:20:41.949Z,79.91
2022-11-24T04:23:11.139Z,79.89
2022-11-24T04:25:41.771Z,79.83
2022-11-24T04:28:10.661Z,79.69
2022-11-24T04:30:40.882Z,79.36
2022-11-24T04:33:09.076Z,79.46
2022-11-24T04:35:37.326Z,79.46
2022-11-24T04:38:05.551Z,79.44
2022-11-24T04:40:33.877Z,79.25
2022-11-24T04:43:02.154Z,79.22
2022-11-24T04:45:30.384Z,79.11
2022-11-24T04:47:58.705Z,79.05
2022-11-24T04:50:27.081Z,78.93
2022-11-24T04:52:55.493Z,78.77
2022-11-24T04:55:23.693Z,78.58
2022-11-24T04:57:51.852Z,78.29
2022-11-24T05:00:20.387Z,78.18
2022-11-24T05:02:48.590Z,78.06
2022-11-24T05:05:16.940Z,77.87
2022-11-24T05:07:45.211Z,77.54
2022-11-24T05:10:32.423Z,77.59
2022-11-24T05:13:01.114Z,77.67
2022-11-24T05:15:29.284Z,77.64
2022-11-24T05:17:57.453Z,77.40
2022-11-24T05:20:26.136Z,77.19
2022-11-24T05:22:54.318Z,77.35
2022-11-24T05:25:22.484Z,77.52
2022-11-24T05:27:50.862Z,77.41
2022-11-24T05:30:19.556Z,77.19
2022-11-24T05:32:47.698Z,77.24
2022-11-24T05:35:16.303Z,77.06
2022-11-24T05:37:44.722Z,77.04
2022-11-24T05:40:12.855Z,76.81
2022-11-24T05:42:46.249Z,76.35
2022-11-24T05:45:19.437Z,76.28
2022-11-24T05:47:49.069Z,76.33
2022-11-24T05:50:19.374Z,76.18
2022-11-24T05:52:48.051Z,76.47
2022-11-24T05:55:16.231Z,76.62
2022-11-24T05:57:44.398Z,76.70
2022-11-24T06:00:13.632Z,76.82
2022-11-24T06:02:42.175Z,76.85
2022-11-24T06:05:10.401Z,76.73
2022-11-24T06:07:38.769Z,76.54
2022-11-24T06:10:07.107Z,76.56
2022-11-24T06:12:36.090Z,76.20
2022-11-24T06:15:05.081Z,76.01
2022-11-24T06:17:33.155Z,76.00
2022-11-24T06:20:01.202Z,76.26
2022-11-24T06:22:29.348Z,76.18
2022-11-24T06:24:57.399Z,76.17
2022-11-24T06:27:26.152Z,76.18
2022-11-24T06:29:54.230Z,76.41
2022-11-24T06:32:22.396Z,76.44
2022-11-24T06:34:50.380Z,76.21
2022-11-24T06:37:18.637Z,76.22
2022-11-24T06:39:47.018Z,76.20
2022-11-24T06:42:19.109Z,76.07
2022-11-24T06:44:47.765Z,76.01
2022-11-24T06:47:16.254Z,76.09
2022-11-24T06:49:44.474Z,76.00
2022-11-24T06:52:12.664Z,75.65
2022-11-24T06:54:40.872Z,75.70
2022-11-24T06:57:09.737Z,75.62
2022-11-24T06:59:38.042Z,75.54
2022-11-24T07:02:06.636Z,75.58
2022-11-24T07:04:34.938Z,75.48
2022-11-24T07:07:03.474Z,75.55
2022-11-24T07:09:31.539Z,75.50
2022-11-24T07:12:00.280Z,75.42
2022-11-24T07:14:28.401Z,75.50
2022-11-24T07:16:56.675Z,75.43
2022-11-24T07:19:25.316Z,75.50
2022-11-24T07:21:54.049Z,75.71
2022-11-24T07:24:22.115Z,75.65
2022-11-24T07:26:50.392Z,75.66
2022-11-24T07:29:18.462Z,75.46
2022-11-24T07:31:46.713Z,75.59
2022-11-24T07:34:14.997Z,75.45
2022-11-24T07:36:45.343Z,75.27
2022-11-24T07:39:13.478Z,75.31
2022-11-24T07:41:41.587Z,75.50
2022-11-24T07:44:09.761Z,75.51
2022-11-24T07:46:37.927Z,75.38
2022-11-24T07:49:05.875Z,75.31
2022-11-24T07:51:34.010Z,75.38
2022-11-24T07:54:02.135Z,75.49
2022-11-24T07:56:30.138Z,75.66
2022-11-24T07:58:58.228Z,75.70
2022-11-24T08:01:26.268Z,75.48
2022-11-24T08:03:54.700Z,75.39
2022-11-24T08:06:26.120Z,75.55
2022-11-24T08:08:58.031Z,75.28
2022-11-24T08:11:26.796Z,75.33
2022-11-24T08:13:55.353Z,75.24
2022-11-24T08:16:23.474Z,75.13
2022-11-24T08:18:56.149Z,75.10
2022-11-24T08:21:24.716Z,74.85
2022-11-24T08:23:57.122Z,74.72
2022-11-24T08:26:26.485Z,74.77
2022-11-24T08:28:57.962Z,74.58
2022-11-24T08:31:33.381Z,74.61
2022-11-24T08:34:03.728Z,74.66
2022-11-24T08:36:32.697Z,74.34
2022-11-24T08:39:01.197Z,74.23
2022-11-24T08:41:31.012Z,74.23
2022-11-24T08:43:59.188Z,74.42
2022-11-24T08:46:27.544Z,74.42
2022-11-24T08:48:55.781Z,74.32
2022-11-24T08:51:26.320Z,74.43
2022-11-24T08:53:56.946Z,74.57
2022-11-24T08:56:29.570Z,74.78
2022-11-24T08:58:58.044Z,74.46
2022-11-24T09:01:27.907Z,74.27
2022-11-24T09:03:56.525Z,74.01
2022-11-24T09:06:27.888Z,74.01
2022-11-24T09:08:56.478Z,73.82
2022-11-24T09:11:26.009Z,73.62
2022-11-24T09:13:55.379Z,73.60
2022-11-24T09:16:27.098Z,73.31
2022-11-24T09:19:06.189Z,73.45
2022-11-24T09:21:38.065Z,73.75
2022-11-24T09:24:07.507Z,73.36
2022-11-24T09:26:40.616Z,73.24
2022-11-24T09:29:12.682Z,73.51
2022-11-24T09:31:41.060Z,73.35
2022-11-24T09:34:13.127Z,73.48
2022-11-24T09:36:41.935Z,73.61
2022-11-24T09:39:10.915Z,73.31
2022-11-24T09:41:42.150Z,73.64
2022-11-24T09:44:28.447Z,73.42
2022-11-24T09:47:38.504Z,73.53
2022-11-24T09:50:11.652Z,73.96
2022-11-24T09:53:05.355Z,73.75
2022-11-24T09:55:39.136Z,73.85
2022-11-24T09:58:26.195Z,73.82
2022-11-24T10:00:56.542Z,73.95
2022-11-24T10:03:43.927Z,73.77
2022-11-24T10:06:35.158Z,73.90
2022-11-24T10:09:06.171Z,73.94
2022-11-24T10:11:42.746Z,73.85
2022-11-24T10:14:25.972Z,73.78
2022-11-24T10:17:19.139Z,73.61
2022-11-24T10:19:56.615Z,73.84
2022-11-24T10:22:33.917Z,73.79
2022-11-24T10:25:07.917Z,73.70
2022-11-24T10:27:42.048Z,73.50
2022-11-24T10:30:30.521Z,73.38
2022-11-24T10:33:04.835Z,73.21
2022-11-24T10:35:40.060Z,73.21
2022-11-24T10:38:17.216Z,73.21
2022-11-24T10:40:58.560Z,73.15
2022-11-24T10:43:28.451Z,73.01
2022-11-24T10:46:10.079Z,72.75
2022-11-24T10:48:47.921Z,72.98
2022-11-24T10:51:37.335Z,72.97
2022-11-24T10:54:23.672Z,72.92
2022-11-24T10:56:53.891Z,72.94
2022-11-24T10:59:24.595Z,72.68
2022-11-24T11:01:53.834Z,72.75
2022-11-24T11:04:29.799Z,72.65
2022-11-24T11:07:27.406Z,72.60
2022-11-24T11:10:19.789Z,72.41
2022-11-24T11:12:49.659Z,71.92
2022-11-24T11:15:27.112Z,71.93
2022-11-24T11:18:01.264Z,71.55
2022-11-24T11:20:34.187Z,71.34
2022-11-24T11:23:16.031Z,71.26
2022-11-24T11:25:44.040Z,71.30
2022-11-24T11:28:25.508Z,71.05
2022-11-24T11:34:23.197Z,71.42
2022-11-24T11:37:00.026Z,71.74
2022-11-24T11:39:45.412Z,72.01
2022-11-24T11:42:53.811Z,72.02
2022-11-24T11:45:23.133Z,72.25
2022-11-24T11:47:57.453Z,72.71
2022-11-24T11:51:21.141Z,72.82
2022-11-24T11:53:48.931Z,72.83
2022-11-24T11:56:33.281Z,72.90
2022-11-24T11:59:26.246Z,72.61
2022-11-24T12:02:30.347Z,72.51
2022-11-24T12:05:02.826Z,72.32
2022-11-24T12:07:49.939Z,72.40
2022-11-24T12:10:30.345Z,72.18
2022-11-24T12:13:32.388Z,72.23
2022-11-24T12:16:22.146Z,71.96
2022-11-24T12:19:26.258Z,71.90
2022-11-24T12:22:23.132Z,72.06
2022-11-24T12:25:01.902Z,72.17
2022-11-24T12:27:52.381Z,72.02
2022-11-24T12:30:23.056Z,72.23
2022-11-24T12:33:14.517Z,72.09
2022-11-24T12:35:49.304Z,71.98
2022-11-24T12:38:17.506Z,72.11
2022-11-24T12:41:18.357Z,71.91
2022-11-24T12:43:52.324Z,72.09
2022-11-24T12:46:39.183Z,72.28
2022-11-24T12:49:19.183Z,72.20
2022-11-24T12:51:56.368Z,72.35
2022-11-24T12:54:26.491Z,72.29
2022-11-24T12:57:14.737Z,72.55
2022-11-24T12:59:54.987Z,72.82
2022-11-24T13:02:51.210Z,73.00
2022-11-24T13:05:44.394Z,73.22
2022-11-24T13:08:14.469Z,73.17
2022-11-24T13:10:58.354Z,73.50
2022-11-24T13:13:48.073Z,73.74
2022-11-24T13:19:18.354Z,74.13
2022-11-24T13:21:52.896Z,73.79
2022-11-24T13:24:24.944Z,73.97
2022-11-24T13:27:15.760Z,73.89
2022-11-24T13:29:48.625Z,73.79
2022-11-24T13:32:19.561Z,73.89
2022-11-24T13:34:55.046Z,73.69
2022-11-24T13:37:29.095Z,73.75
2022-11-24T13:40:12.858Z,73.48
2022-11-24T13:43:00.492Z,73.30
2022-11-24T13:45:49.706Z,73.35
2022-11-24T13:48:21.239Z,73.36
2022-11-24T13:50:49.905Z,72.86
2022-11-24T13:53:32.095Z,72.42
2022-11-24T13:56:25.255Z,72.32
2022-11-24T13:58:59.789Z,72.12
2022-11-24T14:01:33.571Z,72.59
2022-11-24T14:04:35.492Z,72.51
2022-11-24T14:07:08.688Z,72.30
2022-11-24T14:09:44.995Z,71.98
2022-11-24T14:12:26.773Z,71.95
2022-11-24T14:15:12.856Z,71.50
2022-11-24T14:17:40.950Z,71.68
2022-11-24T14:20:22.334Z,71.78
2022-11-24T14:22:51.144Z,71.65
2022-11-24T14:25:31.074Z,71.70
2022-11-24T14:28:00.691Z,71.67
2022-11-24T14:30:29.190Z,71.32
2022-11-24T14:33:02.597Z,71.29
2022-11-24T14:35:32.792Z,71.38
2022-11-24T14:38:05.945Z,71.46
2022-11-24T14:40:51.409Z,71.55
2022-11-24T14:43:31.170Z,71.35
2022-11-24T14:46:10.058Z,71.30
2022-11-24T14:48:47.103Z,71.74
2022-11-24T14:51:24.737Z,71.62
2022-11-24T14:53:55.618Z,71.39
2022-11-24T14:56:57.260Z,71.39
2022-11-24T14:59:27.739Z,71.55
2022-11-24T15:01:57.573Z,71.35
2022-11-24T15:07:27.570Z,70.53
2022-11-24T15:09:58.605Z,70.55
2022-11-24T15:12:43.182Z,70.64
2022-11-24T15:15:14.395Z,70.87
2022-11-24T15:17:47.069Z,70.77
2022-11-24T15:20:41.813Z,70.49
2022-11-24T15:23:27.784Z,70.26
2022-11-24T15:25:57.574Z,70.30
2022-11-24T15:28:28.572Z,70.56
2022-11-24T15:31:01.180Z,70.52
2022-11-24T15:33:30.686Z,70.79
2022-11-24T15:36:00.141Z,70.68
2022-11-24T15:38:28.315Z,70.62
2022-11-24T15:40:59.815Z,70.77
2022-11-24T15:43:36.494Z,70.84
2022-11-24T15:46:05.751Z,70.78
2022-11-24T15:48:34.268Z,70.77
2022-11-24T15:51:05.719Z,70.76
2022-11-24T15:53:40.137Z,70.78
2022-11-24T15:56:15.439Z,70.72
2022-11-24T15:58:43.746Z,70.84
2022-11-24T16:01:11.961Z,70.62
2022-11-24T16:03:48.666Z,70.16
2022-11-24T16:06:24.748Z,70.20
2022-11-24T16:08:54.397Z,70.49
2022-11-24T16:11:23.576Z,70.39
2022-11-24T16:13:53.630Z,70.39
2022-11-24T16:16:25.000Z,70.36
2022-11-24T16:18:53.527Z,70.46
2022-11-24T16:21:21.968Z,70.60
2022-11-24T16:23:50.055Z,70.40
2022-11-24T16:26:18.225Z,70.27
2022-11-24T16:28:46.298Z,69.88
2022-11-24T16:31:16.292Z,70.02
2022-11-24T16:33:46.521Z,69.88
2022-11-24T16:36:15.130Z,69.70
2022-11-24T16:38:43.960Z,69.31
2022-11-24T16:41:12.617Z,69.46
2022-11-24T16:43:41.168Z,69.30
2022-11-24T16:46:09.182Z,69.11
2022-11-24T16:48:37.440Z,68.68
2022-11-24T16:51:07.647Z,68.65
2022-11-24T16:53:36.674Z,69.03
2022-11-24T16:56:04.949Z,69.31
2022-11-24T16:58:33.551Z,69.11
2022-11-24T17:01:08.933Z,68.66
2022-11-24T17:03:38.032Z,68.71
2022-11-24T17:06:08.706Z,69.03
2022-11-24T17:08:39.522Z,68.94
2022-11-24T17:11:19.846Z,69.02
2022-11-24T17:13:49.370Z,69.09
2022-11-24T17:16:21.202Z,69.35
2022-11-24T17:18:50.249Z,69.49
2022-11-24T17:21:20.918Z,69.36
2022-11-24T17:23:55.158Z,69.45
2022-11-24T17:26:24.088Z,69.48
2022-11-24T17:28:52.825Z,69.74
2022-11-24T17:31:32.470Z,69.29
2022-11-24T17:34:00.646Z,69.30
2022-11-24T17:36:30.654Z,69.44
2022-11-24T17:38:59.954Z,69.48
2022-11-24T17:41:28.434Z,69.63
2022-11-24T17:43:57.350Z,69.37
2022-11-24T17:46:27.928Z,69.15
2022-11-24T17:48:57.153Z,69.07
2022-11-24T17:51:26.791Z,69.17
2022-11-24T17:53:56.223Z,68.98
2022-11-24T17:56:27.230Z,68.83
2022-11-24T17:58:58.410Z,69.11
2022-11-24T18:01:30.215Z,69.21
2022-11-24T18:03:58.860Z,69.19
2022-11-24T18:06:28.860Z,68.90
2022-11-24T18:08:58.003Z,69.20
2022-11-24T18:11:32.317Z,69.13
2022-11-24T18:14:03.201Z,69.02
2022-11-24T18:16:34.763Z,69.00
2022-11-24T18:19:09.919Z,68.76
2022-11-24T18:21:40.231Z,68.95
2022-11-24T18:24:10.498Z,69.16
2022-11-24T18:26:40.926Z,69.27
2022-11-24T18:29:10.532Z,69.33
2022-11-24T18:31:39.498Z,69.37
2022-11-24T18:34:08.237Z,69.40
2022-11-24T18:36:36.597Z,69.52
2022-11-24T18:39:07.103Z,69.50
2022-11-24T18:41:35.802Z,69.71
2022-11-24T18:44:08.134Z,69.88
2022-11-24T18:46:37.836Z,69.97
2022-11-24T18:49:07.228Z,70.27
2022-11-24T18:51:35.904Z,70.05
2022-11-24T18:54:05.602Z,70.12
2022-11-24T18:56:34.039Z,70.18
2022-11-24T18:59:02.465Z,70.05
2022-11-24T19:01:31.270Z,70.05
2022-11-24T19:04:02.110Z,70.47
2022-11-24T19:06:32.768Z,70.23
2022-11-24T19:09:13.387Z,70.04
2022-11-24T19:11:44.351Z,70.01
2022-11-24T19:14:16.682Z,70.06
2022-11-24T19:16:46.432Z,70.16
2022-11-24T19:19:14.934Z,70.32
2022-11-24T19:21:43.391Z,70.02
2022-11-24T19:24:13.354Z,69.89
2022-11-24T19:26:41.968Z,69.85
2022-11-24T19:29:10.216Z,70.11
2022-11-24T19:31:39.668Z,69.96
2022-11-24T19:34:08.458Z,70.22
2022-11-24T19:36:37.258Z,70.33
2022-11-24T19:39:05.564Z,70.15
2022-11-24T19:41:34.439Z,69.96
2022-11-24T19:44:02.601Z,70.25
2022-11-24T19:46:30.800Z,70.10
2022-11-24T19:49:01.814Z,70.24
2022-11-24T19:51:32.349Z,70.23
2022-11-24T19:54:01.394Z,70.45
2022-11-24T19:56:32.684Z,70.37
2022-11-24T19:59:00.872Z,70.28
2022-11-24T20:01:31.592Z,70.06
2022-11-24T20:04:08.979Z,70.12
2022-11-24T20:06:39.815Z,70.47
2022-11-24T20:09:10.736Z,70.42
2022-11-24T20:11:39.739Z,70.75
2022-11-24T20:14:10.912Z,70.76
2022-11-24T20:16:39.431Z,70.69
2022-11-24T20:19:11.637Z,70.94
2022-11-24T20:21:41.758Z,71.27
2022-11-24T20:24:15.964Z,71.15
2022-11-24T20:27:02.190Z,71.20
2022-11-24T20:29:32.508Z,71.29
2022-11-24T20:32:00.691Z,71.52
2022-11-24T20:34:29.033Z,71.07
2022-11-24T20:36:57.111Z,71.09
2022-11-24T20:39:27.913Z,71.03
2022-11-24T20:41:56.799Z,70.96
2022-11-24T20:44:26.831Z,70.96
2022-11-24T20:46:57.274Z,71.08
2022-11-24T20:49:26.439Z,71.15
2022-11-24T20:51:55.265Z,71.14
2022-11-24T20:54:23.842Z,71.18
2022-11-24T20:56:51.888Z,71.00
2022-11-24T20:59:22.873Z,70.84
2022-11-24T21:01:52.295Z,71.18
2022-11-24T21:04:23.329Z,71.25
2022-11-24T21:06:51.333Z,71.47
2022-11-24T21:09:19.734Z,71.58
2022-11-24T21:11:48.728Z,71.65
2022-11-24T21:14:16.950Z,71.64
2022-11-24T21:16:45.102Z,71.83
2022-11-24T21:19:15.031Z,72.02
2022-11-24T21:21:43.404Z,72.29
2022-11-24T21:24:14.932Z,72.24
2022-11-24T21:26:44.479Z,71.85
2022-11-24T21:29:13.222Z,71.51
2022-11-24T21:31:41.969Z,71.25
2022-11-24T21:34:13.961Z,71.36
2022-11-24T21:36:45.161Z,70.74
2022-11-24T21:39:14.856Z,70.49
2022-11-24T21:41:43.599Z,70.21
2022-11-24T21:44:13.691Z,70.28
2022-11-24T21:46:46.226Z,70.39
2022-11-24T21:49:17.642Z,70.30
2022-11-24T21:51:45.811Z,70.17
2022-11-24T21:54:13.883Z,69.92
2022-11-24T21:56:42.155Z,70.30
2022-11-24T21:59:10.341Z,70.16
2022-11-24T22:01:39.002Z,69.91
2022-11-24T22:04:07.085Z,69.92
2022-11-24T22:06:35.483Z,69.75
2022-11-24T22:09:03.578Z,69.89
2022-11-24T22:11:31.632Z,70.17
2022-11-24T22:13:59.778Z,70.17
2022-11-24T22:16:28.011Z,69.97
2022-11-24T22:18:56.245Z,69.79
2022-11-24T22:21:29.426Z,69.71
2022-11-24T22:23:57.547Z,69.55
2022-11-24T22:26:26.985Z,69.51
2022-11-24T22:28:56.906Z,69.79
2022-11-24T22:31:32.918Z,69.89
2022-11-24T22:34:01.446Z,70.07
2022-11-24T22:36:30.749Z,69.90
2022-11-24T22:39:04.548Z,70.09
2022-11-24T22:41:34.494Z,70.33
2022-11-24T22:44:03.261Z,70.38
2022-11-24T22:46:32.224Z,69.98
2022-11-24T22:49:01.788Z,69.65
2022-11-24T22:51:33.193Z,69.71
2022-11-24T22:54:03.944Z,69.89
2022-11-24T22:56:33.565Z,69.86
2022-11-24T22:59:02.635Z,69.75
2022-11-24T23:01:32.038Z,69.86
2022-11-24T23:04:00.508Z,70.40
2022-11-24T23:06:30.676Z,70.34
2022-11-24T23:09:01.052Z,70.05
2022-11-24T23:11:38.484Z,70.16
2022-11-24T23:14:11.166Z,70.24
2022-11-24T23:16:40.127Z,70.45
2022-11-24T23:19:08.817Z,70.15
2022-11-24T23:21:38.587Z,69.89
2022-11-24T23:24:07.979Z,69.92
2022-11-24T23:26:39.052Z,69.99
2022-11-24T23:29:07.957Z,69.85
2022-11-24T23:31:39.860Z,69.86
2022-11-24T23:34:08.601Z,70.03
2022-11-24T23:36:36.665Z,70.17
2022-11-24T23:39:11.597Z,70.08
2022-11-24T23:41:40.005Z,70.36
2022-11-24T23:44:08.445Z,70.62
2022-11-24T23:46:37.125Z,70.42
2022-11-24T23:49:05.072Z,70.37
2022-11-24T23:51:34.095Z,70.82
2022-11-24T23:56:47.743Z,71.14
2022-11-24T23:59:17.657Z,71.14
